Terminal Aerodrome Forecast
Issued by NWS Sioux Falls, SD

Home | Current Version | Previous Version | Text Only | Print | Product List | Glossary On
Versions: 1 2 3 4 5 6 7 8 9 10 11 12 13 14 15
000
FTUS43 KFSD 281130
TAFFSD
TAF
KFSD 281130Z 2812/0112 17011KT P6SM SKC
     FM281500 17014G21KT P6SM SCT080
     FM281700 19014G21KT P6SM BKN035
     FM010000 18009KT P6SM SCT035
     FM010600 27005KT P6SM SCT035 SCT100=

USA.gov is the U.S. government's official web portal to all federal, state and local government web resources and services.